sensor_id;sensor_type;location;lat;lon;timestamp;temperature;humidity
14604;DHT22;7388;51.078;13.740;2022-11-09T00:02:22;16.10;42.90
14604;DHT22;7388;51.078;13.740;2022-11-09T00:04:47;16.00;42.90
14604;DHT22;7388;51.078;13.740;2022-11-09T00:07:13;16.00;43.00
14604;DHT22;7388;51.078;13.740;2022-11-09T00:09:39;16.00;43.00
14604;DHT22;7388;51.078;13.740;2022-11-09T00:12:05;16.00;43.00
14604;DHT22;7388;51.078;13.740;2022-11-09T00:14:32;16.00;43.10
14604;DHT22;7388;51.078;13.740;2022-11-09T00:16:59;16.00;43.10
14604;DHT22;7388;51.078;13.740;2022-11-09T00:19:25;15.90;43.20
14604;DHT22;7388;51.078;13.740;2022-11-09T00:21:51;15.90;43.20
14604;DHT22;7388;51.078;13.740;2022-11-09T00:24:17;15.90;43.20
14604;DHT22;7388;51.078;13.740;2022-11-09T00:26:43;15.90;43.20
14604;DHT22;7388;51.078;13.740;2022-11-09T00:29:09;15.90;43.20
14604;DHT22;7388;51.078;13.740;2022-11-09T00:31:35;15.90;43.20
14604;DHT22;7388;51.078;13.740;2022-11-09T00:34:01;15.90;43.20
14604;DHT22;7388;51.078;13.740;2022-11-09T00:36:27;15.80;43.00
14604;DHT22;7388;51.078;13.740;2022-11-09T00:38:58;15.80;43.00
14604;DHT22;7388;51.078;13.740;2022-11-09T00:41:24;15.80;43.00
14604;DHT22;7388;51.078;13.740;2022-11-09T00:43:51;15.70;43.10
14604;DHT22;7388;51.078;13.740;2022-11-09T00:46:17;15.70;43.10
14604;DHT22;7388;51.078;13.740;2022-11-09T00:48:44;15.60;43.00
14604;DHT22;7388;51.078;13.740;2022-11-09T00:51:10;15.60;43.10
14604;DHT22;7388;51.078;13.740;2022-11-09T00:53:36;15.60;43.70
14604;DHT22;7388;51.078;13.740;2022-11-09T00:56:04;15.60;43.00
14604;DHT22;7388;51.078;13.740;2022-11-09T00:58:33;15.50;43.10
14604;DHT22;7388;51.078;13.740;2022-11-09T01:01:05;15.50;43.10
14604;DHT22;7388;51.078;13.740;2022-11-09T01:03:31;15.50;43.10
14604;DHT22;7388;51.078;13.740;2022-11-09T01:06:00;15.50;43.10
14604;DHT22;7388;51.078;13.740;2022-11-09T01:08:26;15.40;43.10
14604;DHT22;7388;51.078;13.740;2022-11-09T01:10:52;15.40;43.20
14604;DHT22;7388;51.078;13.740;2022-11-09T01:13:18;15.40;43.20
14604;DHT22;7388;51.078;13.740;2022-11-09T01:15:47;15.30;43.20
14604;DHT22;7388;51.078;13.740;2022-11-09T01:18:14;15.30;43.30
14604;DHT22;7388;51.078;13.740;2022-11-09T01:20:42;15.30;43.40
14604;DHT22;7388;51.078;13.740;2022-11-09T01:23:09;15.20;43.20
14604;DHT22;7388;51.078;13.740;2022-11-09T01:25:35;15.20;43.30
14604;DHT22;7388;51.078;13.740;2022-11-09T01:28:02;15.20;43.30
14604;DHT22;7388;51.078;13.740;2022-11-09T01:30:28;15.10;43.50
14604;DHT22;7388;51.078;13.740;2022-11-09T01:32:53;15.10;43.50
14604;DHT22;7388;51.078;13.740;2022-11-09T01:35:19;15.10;43.50
14604;DHT22;7388;51.078;13.740;2022-11-09T01:37:45;15.10;43.50
14604;DHT22;7388;51.078;13.740;2022-11-09T01:40:11;15.10;43.50
14604;DHT22;7388;51.078;13.740;2022-11-09T01:42:38;15.10;43.50
14604;DHT22;7388;51.078;13.740;2022-11-09T01:45:33;15.10;43.50
14604;DHT22;7388;51.078;13.740;2022-11-09T01:48:12;15.00;43.40
14604;DHT22;7388;51.078;13.740;2022-11-09T01:50:51;15.00;43.50
14604;DHT22;7388;51.078;13.740;2022-11-09T01:53:21;14.90;43.70
14604;DHT22;7388;51.078;13.740;2022-11-09T01:55:50;14.90;43.70
14604;DHT22;7388;51.078;13.740;2022-11-09T01:58:33;14.80;43.70
14604;DHT22;7388;51.078;13.740;2022-11-09T02:01:00;14.80;43.60
14604;DHT22;7388;51.078;13.740;2022-11-09T02:03:40;14.80;43.80
14604;DHT22;7388;51.078;13.740;2022-11-09T02:06:09;14.80;43.80
14604;DHT22;7388;51.078;13.740;2022-11-09T02:08:36;14.80;43.80
14604;DHT22;7388;51.078;13.740;2022-11-09T02:11:16;14.80;43.70
14604;DHT22;7388;51.078;13.740;2022-11-09T02:14:02;14.80;43.70
14604;DHT22;7388;51.078;13.740;2022-11-09T02:16:29;14.80;43.80
14604;DHT22;7388;51.078;13.740;2022-11-09T02:18:57;14.80;43.70
14604;DHT22;7388;51.078;13.740;2022-11-09T02:21:25;14.70;43.70
14604;DHT22;7388;51.078;13.740;2022-11-09T02:23:51;14.70;43.70
14604;DHT22;7388;51.078;13.740;2022-11-09T02:29:30;14.70;43.80
14604;DHT22;7388;51.078;13.740;2022-11-09T02:31:59;14.60;43.90
14604;DHT22;7388;51.078;13.740;2022-11-09T02:34:26;14.60;44.10
14604;DHT22;7388;51.078;13.740;2022-11-09T02:36:51;14.60;44.00
14604;DHT22;7388;51.078;13.740;2022-11-09T02:39:19;14.60;44.00
14604;DHT22;7388;51.078;13.740;2022-11-09T02:41:57;14.70;44.10
14604;DHT22;7388;51.078;13.740;2022-11-09T02:44:24;14.70;43.90
14604;DHT22;7388;51.078;13.740;2022-11-09T02:46:52;14.70;43.80
14604;DHT22;7388;51.078;13.740;2022-11-09T02:49:18;14.70;43.70
14604;DHT22;7388;51.078;13.740;2022-11-09T02:51:43;14.70;43.70
14604;DHT22;7388;51.078;13.740;2022-11-09T02:54:09;14.70;43.80
14604;DHT22;7388;51.078;13.740;2022-11-09T02:56:35;14.70;43.80
14604;DHT22;7388;51.078;13.740;2022-11-09T02:59:01;14.70;43.90
14604;DHT22;7388;51.078;13.740;2022-11-09T03:01:28;14.60;43.70
14604;DHT22;7388;51.078;13.740;2022-11-09T03:03:54;14.60;44.50
14604;DHT22;7388;51.078;13.740;2022-11-09T03:06:19;14.60;43.90
14604;DHT22;7388;51.078;13.740;2022-11-09T03:08:45;14.60;43.80
14604;DHT22;7388;51.078;13.740;2022-11-09T03:11:11;14.60;43.80
14604;DHT22;7388;51.078;13.740;2022-11-09T03:13:37;14.60;43.60
14604;DHT22;7388;51.078;13.740;2022-11-09T03:16:06;14.60;43.60
14604;DHT22;7388;51.078;13.740;2022-11-09T03:18:32;14.60;43.70
14604;DHT22;7388;51.078;13.740;2022-11-09T03:21:03;14.50;43.80
14604;DHT22;7388;51.078;13.740;2022-11-09T03:23:29;14.50;43.70
14604;DHT22;7388;51.078;13.740;2022-11-09T03:25:54;14.50;44.00
14604;DHT22;7388;51.078;13.740;2022-11-09T03:28:20;14.40;43.80
14604;DHT22;7388;51.078;13.740;2022-11-09T03:30:46;14.40;43.90
14604;DHT22;7388;51.078;13.740;2022-11-09T03:33:12;14.30;44.10
14604;DHT22;7388;51.078;13.740;2022-11-09T03:35:39;14.40;44.10
14604;DHT22;7388;51.078;13.740;2022-11-09T03:38:05;14.30;44.20
14604;DHT22;7388;51.078;13.740;2022-11-09T03:40:31;14.40;44.10
14604;DHT22;7388;51.078;13.740;2022-11-09T03:42:57;14.40;44.00
14604;DHT22;7388;51.078;13.740;2022-11-09T03:45:23;14.40;44.00
14604;DHT22;7388;51.078;13.740;2022-11-09T03:47:50;14.40;43.90
14604;DHT22;7388;51.078;13.740;2022-11-09T03:50:16;14.40;43.80
14604;DHT22;7388;51.078;13.740;2022-11-09T03:52:46;14.30;43.90
14604;DHT22;7388;51.078;13.740;2022-11-09T03:55:13;14.30;44.10
14604;DHT22;7388;51.078;13.740;2022-11-09T03:57:39;14.20;44.20
14604;DHT22;7388;51.078;13.740;2022-11-09T04:00:06;14.20;45.00
14604;DHT22;7388;51.078;13.740;2022-11-09T04:02:32;14.20;44.30
14604;DHT22;7388;51.078;13.740;2022-11-09T04:04:58;14.20;44.20
14604;DHT22;7388;51.078;13.740;2022-11-09T04:07:24;14.30;44.30
14604;DHT22;7388;51.078;13.740;2022-11-09T04:09:50;14.30;44.20
14604;DHT22;7388;51.078;13.740;2022-11-09T04:12:15;14.30;44.30
14604;DHT22;7388;51.078;13.740;2022-11-09T04:14:41;14.20;44.20
14604;DHT22;7388;51.078;13.740;2022-11-09T04:17:07;14.20;44.10
14604;DHT22;7388;51.078;13.740;2022-11-09T04:19:33;14.20;44.10
14604;DHT22;7388;51.078;13.740;2022-11-09T04:21:58;14.20;44.10
14604;DHT22;7388;51.078;13.740;2022-11-09T04:24:24;14.20;44.20
14604;DHT22;7388;51.078;13.740;2022-11-09T04:26:50;14.20;44.20
14604;DHT22;7388;51.078;13.740;2022-11-09T04:29:15;14.10;44.20
14604;DHT22;7388;51.078;13.740;2022-11-09T04:31:41;14.10;44.20
14604;DHT22;7388;51.078;13.740;2022-11-09T04:34:07;14.10;44.30
14604;DHT22;7388;51.078;13.740;2022-11-09T04:36:33;14.10;44.30
14604;DHT22;7388;51.078;13.740;2022-11-09T04:38:58;14.10;44.50
14604;DHT22;7388;51.078;13.740;2022-11-09T04:41:25;14.10;44.50
14604;DHT22;7388;51.078;13.740;2022-11-09T04:43:51;14.10;44.50
14604;DHT22;7388;51.078;13.740;2022-11-09T04:46:17;14.10;44.50
14604;DHT22;7388;51.078;13.740;2022-11-09T04:48:42;14.10;44.40
14604;DHT22;7388;51.078;13.740;2022-11-09T04:51:09;14.10;44.30
14604;DHT22;7388;51.078;13.740;2022-11-09T04:53:36;14.10;44.30
14604;DHT22;7388;51.078;13.740;2022-11-09T04:56:03;14.10;44.30
14604;DHT22;7388;51.078;13.740;2022-11-09T04:58:29;14.10;44.30
14604;DHT22;7388;51.078;13.740;2022-11-09T05:01:08;14.10;44.20
14604;DHT22;7388;51.078;13.740;2022-11-09T05:03:34;14.10;44.30
14604;DHT22;7388;51.078;13.740;2022-11-09T05:06:00;14.10;44.30
14604;DHT22;7388;51.078;13.740;2022-11-09T05:08:46;14.10;44.30
14604;DHT22;7388;51.078;13.740;2022-11-09T05:11:12;14.10;44.40
14604;DHT22;7388;51.078;13.740;2022-11-09T05:13:37;14.10;44.20
14604;DHT22;7388;51.078;13.740;2022-11-09T05:16:03;14.10;44.20
14604;DHT22;7388;51.078;13.740;2022-11-09T05:18:29;14.10;44.30
14604;DHT22;7388;51.078;13.740;2022-11-09T05:20:58;14.10;44.30
14604;DHT22;7388;51.078;13.740;2022-11-09T05:23:24;14.20;44.30
14604;DHT22;7388;51.078;13.740;2022-11-09T05:26:08;14.10;43.90
14604;DHT22;7388;51.078;13.740;2022-11-09T05:28:34;14.00;44.00
14604;DHT22;7388;51.078;13.740;2022-11-09T05:31:00;14.00;44.30
14604;DHT22;7388;51.078;13.740;2022-11-09T05:33:26;14.00;44.40
14604;DHT22;7388;51.078;13.740;2022-11-09T05:35:55;14.00;44.40
14604;DHT22;7388;51.078;13.740;2022-11-09T05:38:21;14.10;44.40
14604;DHT22;7388;51.078;13.740;2022-11-09T05:40:54;14.20;44.00
14604;DHT22;7388;51.078;13.740;2022-11-09T05:43:19;14.10;44.10
14604;DHT22;7388;51.078;13.740;2022-11-09T05:45:46;14.10;43.90
14604;DHT22;7388;51.078;13.740;2022-11-09T05:48:14;14.10;43.90
14604;DHT22;7388;51.078;13.740;2022-11-09T05:50:41;14.20;44.00
14604;DHT22;7388;51.078;13.740;2022-11-09T05:53:07;14.20;43.80
14604;DHT22;7388;51.078;13.740;2022-11-09T05:55:33;14.20;43.80
14604;DHT22;7388;51.078;13.740;2022-11-09T05:57:59;14.20;43.70
14604;DHT22;7388;51.078;13.740;2022-11-09T06:00:25;14.30;43.70
14604;DHT22;7388;51.078;13.740;2022-11-09T06:02:50;14.30;43.60
14604;DHT22;7388;51.078;13.740;2022-11-09T06:05:17;14.30;43.60
14604;DHT22;7388;51.078;13.740;2022-11-09T06:07:44;14.30;43.50
14604;DHT22;7388;51.078;13.740;2022-11-09T06:10:11;14.40;43.50
14604;DHT22;7388;51.078;13.740;2022-11-09T06:12:36;14.40;43.40
14604;DHT22;7388;51.078;13.740;2022-11-09T06:15:03;14.30;43.50
14604;DHT22;7388;51.078;13.740;2022-11-09T06:17:29;14.30;43.60
14604;DHT22;7388;51.078;13.740;2022-11-09T06:19:55;14.20;43.60
14604;DHT22;7388;51.078;13.740;2022-11-09T06:22:21;14.20;43.70
14604;DHT22;7388;51.078;13.740;2022-11-09T06:24:47;14.20;43.70
14604;DHT22;7388;51.078;13.740;2022-11-09T06:27:12;14.20;43.60
14604;DHT22;7388;51.078;13.740;2022-11-09T06:29:38;14.30;43.60
14604;DHT22;7388;51.078;13.740;2022-11-09T06:32:04;14.30;43.60
14604;DHT22;7388;51.078;13.740;2022-11-09T06:34:30;14.30;43.50
14604;DHT22;7388;51.078;13.740;2022-11-09T06:36:55;14.30;43.50
14604;DHT22;7388;51.078;13.740;2022-11-09T06:39:21;14.30;43.50
14604;DHT22;7388;51.078;13.740;2022-11-09T06:41:47;14.30;43.60
14604;DHT22;7388;51.078;13.740;2022-11-09T06:44:14;14.30;43.50
14604;DHT22;7388;51.078;13.740;2022-11-09T06:46:39;14.30;43.50
14604;DHT22;7388;51.078;13.740;2022-11-09T06:49:05;14.30;43.20
14604;DHT22;7388;51.078;13.740;2022-11-09T06:51:31;14.30;43.40
14604;DHT22;7388;51.078;13.740;2022-11-09T06:53:57;14.30;43.50
14604;DHT22;7388;51.078;13.740;2022-11-09T06:56:22;14.30;43.60
14604;DHT22;7388;51.078;13.740;2022-11-09T06:58:48;14.30;43.60
14604;DHT22;7388;51.078;13.740;2022-11-09T07:01:16;14.40;43.40
14604;DHT22;7388;51.078;13.740;2022-11-09T07:03:42;14.40;43.30
14604;DHT22;7388;51.078;13.740;2022-11-09T07:06:10;14.40;43.20
14604;DHT22;7388;51.078;13.740;2022-11-09T07:08:36;14.40;43.20
14604;DHT22;7388;51.078;13.740;2022-11-09T07:11:10;14.40;43.20
14604;DHT22;7388;51.078;13.740;2022-11-09T07:13:37;14.40;43.20
14604;DHT22;7388;51.078;13.740;2022-11-09T07:16:04;14.30;43.30
14604;DHT22;7388;51.078;13.740;2022-11-09T07:18:30;14.40;43.30
14604;DHT22;7388;51.078;13.740;2022-11-09T07:20:55;14.30;43.30
14604;DHT22;7388;51.078;13.740;2022-11-09T07:23:21;14.40;43.30
14604;DHT22;7388;51.078;13.740;2022-11-09T07:25:47;14.30;43.40
14604;DHT22;7388;51.078;13.740;2022-11-09T07:28:13;14.20;43.60
14604;DHT22;7388;51.078;13.740;2022-11-09T07:30:38;14.30;43.50
14604;DHT22;7388;51.078;13.740;2022-11-09T07:33:13;14.40;43.70
14604;DHT22;7388;51.078;13.740;2022-11-09T07:35:39;14.40;43.30
14604;DHT22;7388;51.078;13.740;2022-11-09T07:38:05;14.40;43.30
14604;DHT22;7388;51.078;13.740;2022-11-09T07:40:31;14.40;43.30
14604;DHT22;7388;51.078;13.740;2022-11-09T07:42:58;14.50;43.30
14604;DHT22;7388;51.078;13.740;2022-11-09T07:45:23;14.50;43.30
14604;DHT22;7388;51.078;13.740;2022-11-09T07:48:01;14.50;43.40
14604;DHT22;7388;51.078;13.740;2022-11-09T07:50:28;14.50;43.20
14604;DHT22;7388;51.078;13.740;2022-11-09T07:52:55;14.50;43.30
14604;DHT22;7388;51.078;13.740;2022-11-09T07:55:21;14.50;43.10
14604;DHT22;7388;51.078;13.740;2022-11-09T07:57:47;14.40;43.20
14604;DHT22;7388;51.078;13.740;2022-11-09T08:00:13;14.40;43.30
14604;DHT22;7388;51.078;13.740;2022-11-09T08:02:39;14.40;43.20
14604;DHT22;7388;51.078;13.740;2022-11-09T08:05:06;14.40;43.20
14604;DHT22;7388;51.078;13.740;2022-11-09T08:07:31;14.50;43.20
14604;DHT22;7388;51.078;13.740;2022-11-09T08:09:58;14.40;43.00
14604;DHT22;7388;51.078;13.740;2022-11-09T08:12:24;14.40;43.20
14604;DHT22;7388;51.078;13.740;2022-11-09T08:14:50;14.40;43.20
14604;DHT22;7388;51.078;13.740;2022-11-09T08:17:16;14.50;43.10
14604;DHT22;7388;51.078;13.740;2022-11-09T08:19:41;14.40;42.70
14604;DHT22;7388;51.078;13.740;2022-11-09T08:22:07;14.40;43.10
14604;DHT22;7388;51.078;13.740;2022-11-09T08:24:33;14.50;43.20
14604;DHT22;7388;51.078;13.740;2022-11-09T08:26:59;14.40;43.20
14604;DHT22;7388;51.078;13.740;2022-11-09T08:29:25;14.40;43.00
14604;DHT22;7388;51.078;13.740;2022-11-09T08:31:51;14.40;43.20
14604;DHT22;7388;51.078;13.740;2022-11-09T08:34:17;14.40;43.50
14604;DHT22;7388;51.078;13.740;2022-11-09T08:36:43;14.40;43.40
14604;DHT22;7388;51.078;13.740;2022-11-09T08:39:08;14.40;43.30
14604;DHT22;7388;51.078;13.740;2022-11-09T08:41:35;14.40;42.90
14604;DHT22;7388;51.078;13.740;2022-11-09T08:44:01;14.40;43.30
14604;DHT22;7388;51.078;13.740;2022-11-09T08:46:27;14.40;43.30
14604;DHT22;7388;51.078;13.740;2022-11-09T08:48:52;14.40;43.50
14604;DHT22;7388;51.078;13.740;2022-11-09T08:51:18;14.50;43.20
14604;DHT22;7388;51.078;13.740;2022-11-09T08:53:44;14.50;43.50
14604;DHT22;7388;51.078;13.740;2022-11-09T08:56:09;14.70;43.40
14604;DHT22;7388;51.078;13.740;2022-11-09T08:58:38;14.60;43.40
14604;DHT22;7388;51.078;13.740;2022-11-09T09:01:10;14.70;43.40
14604;DHT22;7388;51.078;13.740;2022-11-09T09:03:36;14.70;43.40
14604;DHT22;7388;51.078;13.740;2022-11-09T09:06:06;14.70;43.40
14604;DHT22;7388;51.078;13.740;2022-11-09T09:08:32;14.70;43.40
14604;DHT22;7388;51.078;13.740;2022-11-09T09:11:01;14.70;43.90
14604;DHT22;7388;51.078;13.740;2022-11-09T09:13:28;14.70;43.20
14604;DHT22;7388;51.078;13.740;2022-11-09T09:15:53;14.80;43.30
14604;DHT22;7388;51.078;13.740;2022-11-09T09:18:19;14.80;43.30
14604;DHT22;7388;51.078;13.740;2022-11-09T09:20:45;14.90;43.10
14604;DHT22;7388;51.078;13.740;2022-11-09T09:23:11;14.90;42.60
14604;DHT22;7388;51.078;13.740;2022-11-09T09:25:38;14.90;42.90
14604;DHT22;7388;51.078;13.740;2022-11-09T09:28:04;15.00;42.80
14604;DHT22;7388;51.078;13.740;2022-11-09T09:30:30;14.90;42.50
14604;DHT22;7388;51.078;13.740;2022-11-09T09:32:59;14.90;42.70
14604;DHT22;7388;51.078;13.740;2022-11-09T09:35:26;14.90;42.70
14604;DHT22;7388;51.078;13.740;2022-11-09T09:37:52;14.90;42.70
14604;DHT22;7388;51.078;13.740;2022-11-09T09:40:33;14.90;42.50
14604;DHT22;7388;51.078;13.740;2022-11-09T09:43:01;14.90;42.40
14604;DHT22;7388;51.078;13.740;2022-11-09T09:45:31;14.90;42.80
14604;DHT22;7388;51.078;13.740;2022-11-09T09:50:27;15.00;42.60
14604;DHT22;7388;51.078;13.740;2022-11-09T09:53:17;15.00;42.40
14604;DHT22;7388;51.078;13.740;2022-11-09T09:55:52;15.10;42.70
14604;DHT22;7388;51.078;13.740;2022-11-09T09:58:31;15.00;42.50
14604;DHT22;7388;51.078;13.740;2022-11-09T10:01:11;15.00;42.50
14604;DHT22;7388;51.078;13.740;2022-11-09T10:03:39;15.10;42.70
14604;DHT22;7388;51.078;13.740;2022-11-09T10:06:42;15.10;42.90
14604;DHT22;7388;51.078;13.740;2022-11-09T10:20:02;15.10;43.60
14604;DHT22;7388;51.078;13.740;2022-11-09T10:25:26;15.10;43.70
14604;DHT22;7388;51.078;13.740;2022-11-09T10:27:57;15.10;43.90
14604;DHT22;7388;51.078;13.740;2022-11-09T10:30:26;15.10;44.00
14604;DHT22;7388;51.078;13.740;2022-11-09T10:32:58;15.20;43.90
14604;DHT22;7388;51.078;13.740;2022-11-09T10:35:34;15.20;43.80
14604;DHT22;7388;51.078;13.740;2022-11-09T10:38:01;15.20;43.60
14604;DHT22;7388;51.078;13.740;2022-11-09T10:40:37;15.20;43.60
14604;DHT22;7388;51.078;13.740;2022-11-09T10:43:09;15.30;43.60
14604;DHT22;7388;51.078;13.740;2022-11-09T10:45:40;15.30;43.30
14604;DHT22;7388;51.078;13.740;2022-11-09T10:48:07;15.40;43.60
14604;DHT22;7388;51.078;13.740;2022-11-09T10:50:37;15.30;43.40
14604;DHT22;7388;51.078;13.740;2022-11-09T10:53:18;15.40;43.40
14604;DHT22;7388;51.078;13.740;2022-11-09T10:58:38;15.40;43.10
14604;DHT22;7388;51.078;13.740;2022-11-09T11:03:37;15.40;43.20
14604;DHT22;7388;51.078;13.740;2022-11-09T11:08:38;15.50;43.70
14604;DHT22;7388;51.078;13.740;2022-11-09T11:11:26;15.50;43.40
14604;DHT22;7388;51.078;13.740;2022-11-09T11:14:14;15.50;43.80
14604;DHT22;7388;51.078;13.740;2022-11-09T11:16:42;15.60;43.70
14604;DHT22;7388;51.078;13.740;2022-11-09T11:19:37;15.50;43.50
14604;DHT22;7388;51.078;13.740;2022-11-09T11:22:16;15.50;43.80
14604;DHT22;7388;51.078;13.740;2022-11-09T11:24:54;15.50;43.70
14604;DHT22;7388;51.078;13.740;2022-11-09T11:27:40;15.60;43.80
14604;DHT22;7388;51.078;13.740;2022-11-09T11:30:12;15.60;43.00
14604;DHT22;7388;51.078;13.740;2022-11-09T11:32:39;15.60;43.60
14604;DHT22;7388;51.078;13.740;2022-11-09T11:35:48;15.70;43.50
14604;DHT22;7388;51.078;13.740;2022-11-09T11:38:29;15.80;43.40
14604;DHT22;7388;51.078;13.740;2022-11-09T11:44:11;16.00;43.00
14604;DHT22;7388;51.078;13.740;2022-11-09T11:50:01;16.20;42.30
14604;DHT22;7388;51.078;13.740;2022-11-09T11:52:40;16.40;42.20
14604;DHT22;7388;51.078;13.740;2022-11-09T12:00:44;16.70;41.60
14604;DHT22;7388;51.078;13.740;2022-11-09T12:11:59;17.00;40.50
14604;DHT22;7388;51.078;13.740;2022-11-09T12:17:13;17.00;39.30
14604;DHT22;7388;51.078;13.740;2022-11-09T12:20:05;17.00;39.70
14604;DHT22;7388;51.078;13.740;2022-11-09T12:23:20;17.00;40.10
14604;DHT22;7388;51.078;13.740;2022-11-09T12:26:16;17.00;39.70
14604;DHT22;7388;51.078;13.740;2022-11-09T12:37:11;16.90;39.30
14604;DHT22;7388;51.078;13.740;2022-11-09T12:39:53;16.80;39.30
14604;DHT22;7388;51.078;13.740;2022-11-09T12:42:26;16.70;39.90
14604;DHT22;7388;51.078;13.740;2022-11-09T12:45:10;16.60;39.60
14604;DHT22;7388;51.078;13.740;2022-11-09T12:47:42;16.70;39.90
14604;DHT22;7388;51.078;13.740;2022-11-09T12:50:16;16.60;39.50
14604;DHT22;7388;51.078;13.740;2022-11-09T12:52:44;16.50;39.80
14604;DHT22;7388;51.078;13.740;2022-11-09T12:55:14;16.40;39.60
14604;DHT22;7388;51.078;13.740;2022-11-09T12:57:45;16.30;40.00
14604;DHT22;7388;51.078;13.740;2022-11-09T13:03:02;16.20;40.10
14604;DHT22;7388;51.078;13.740;2022-11-09T13:05:32;16.20;40.30
14604;DHT22;7388;51.078;13.740;2022-11-09T13:07:59;16.50;39.80
14604;DHT22;7388;51.078;13.740;2022-11-09T13:16:08;16.70;39.30
14604;DHT22;7388;51.078;13.740;2022-11-09T13:23:45;17.20;39.50
14604;DHT22;7388;51.078;13.740;2022-11-09T13:29:24;17.20;38.30
14604;DHT22;7388;51.078;13.740;2022-11-09T13:43:01;16.40;39.80
14604;DHT22;7388;51.078;13.740;2022-11-09T13:48:30;16.40;39.80
14604;DHT22;7388;51.078;13.740;2022-11-09T13:51:15;16.40;39.90
14604;DHT22;7388;51.078;13.740;2022-11-09T13:53:55;16.40;39.60
14604;DHT22;7388;51.078;13.740;2022-11-09T13:59:17;16.40;39.90
14604;DHT22;7388;51.078;13.740;2022-11-09T14:01:53;16.50;39.80
14604;DHT22;7388;51.078;13.740;2022-11-09T14:04:27;16.30;39.90
14604;DHT22;7388;51.078;13.740;2022-11-09T14:13:10;15.90;40.60
14604;DHT22;7388;51.078;13.740;2022-11-09T14:15:48;15.80;40.50
14604;DHT22;7388;51.078;13.740;2022-11-09T14:24:31;15.90;40.70
14604;DHT22;7388;51.078;13.740;2022-11-09T14:27:19;15.90;40.50
14604;DHT22;7388;51.078;13.740;2022-11-09T14:29:58;15.90;40.60
14604;DHT22;7388;51.078;13.740;2022-11-09T14:35:24;15.90;40.50
14604;DHT22;7388;51.078;13.740;2022-11-09T14:37:52;15.80;40.40
14604;DHT22;7388;51.078;13.740;2022-11-09T14:40:23;15.80;40.60
14604;DHT22;7388;51.078;13.740;2022-11-09T14:42:59;15.80;40.80
14604;DHT22;7388;51.078;13.740;2022-11-09T14:45:26;15.70;40.90
14604;DHT22;7388;51.078;13.740;2022-11-09T14:47:58;15.60;41.00
14604;DHT22;7388;51.078;13.740;2022-11-09T14:50:26;15.40;41.20
14604;DHT22;7388;51.078;13.740;2022-11-09T14:52:54;15.40;41.60
14604;DHT22;7388;51.078;13.740;2022-11-09T14:55:22;15.40;41.70
14604;DHT22;7388;51.078;13.740;2022-11-09T14:57:49;15.40;41.70
14604;DHT22;7388;51.078;13.740;2022-11-09T15:02:55;15.30;41.60
14604;DHT22;7388;51.078;13.740;2022-11-09T15:05:30;15.20;41.70
14604;DHT22;7388;51.078;13.740;2022-11-09T15:07:57;15.20;42.00
14604;DHT22;7388;51.078;13.740;2022-11-09T15:10:23;15.10;42.00
14604;DHT22;7388;51.078;13.740;2022-11-09T15:12:59;15.10;42.20
14604;DHT22;7388;51.078;13.740;2022-11-09T15:15:27;15.00;42.50
14604;DHT22;7388;51.078;13.740;2022-11-09T15:17:53;15.00;42.40
14604;DHT22;7388;51.078;13.740;2022-11-09T15:23:39;14.90;42.60
14604;DHT22;7388;51.078;13.740;2022-11-09T15:26:45;14.80;42.60
14604;DHT22;7388;51.078;13.740;2022-11-09T15:34:38;14.60;43.50
14604;DHT22;7388;51.078;13.740;2022-11-09T15:37:22;14.50;43.90
14604;DHT22;7388;51.078;13.740;2022-11-09T15:39:48;14.40;44.10
14604;DHT22;7388;51.078;13.740;2022-11-09T15:42:14;14.40;44.10
14604;DHT22;7388;51.078;13.740;2022-11-09T15:44:40;14.40;44.00
14604;DHT22;7388;51.078;13.740;2022-11-09T15:47:20;14.40;44.10
14604;DHT22;7388;51.078;13.740;2022-11-09T15:49:46;14.40;44.10
14604;DHT22;7388;51.078;13.740;2022-11-09T15:52:12;14.40;44.10
14604;DHT22;7388;51.078;13.740;2022-11-09T15:54:37;14.30;44.20
14604;DHT22;7388;51.078;13.740;2022-11-09T15:57:03;14.40;44.30
14604;DHT22;7388;51.078;13.740;2022-11-09T15:59:29;14.30;44.20
14604;DHT22;7388;51.078;13.740;2022-11-09T16:01:55;14.30;44.30
14604;DHT22;7388;51.078;13.740;2022-11-09T16:04:21;14.30;44.40
14604;DHT22;7388;51.078;13.740;2022-11-09T16:06:46;14.30;44.30
14604;DHT22;7388;51.078;13.740;2022-11-09T16:09:12;14.40;44.40
14604;DHT22;7388;51.078;13.740;2022-11-09T16:11:38;14.40;44.40
14604;DHT22;7388;51.078;13.740;2022-11-09T16:14:04;14.40;44.30
14604;DHT22;7388;51.078;13.740;2022-11-09T16:16:30;14.40;44.30
14604;DHT22;7388;51.078;13.740;2022-11-09T16:18:57;14.50;44.30
14604;DHT22;7388;51.078;13.740;2022-11-09T16:21:23;14.50;44.20
14604;DHT22;7388;51.078;13.740;2022-11-09T16:23:48;14.50;44.30
14604;DHT22;7388;51.078;13.740;2022-11-09T16:26:16;14.50;44.30
14604;DHT22;7388;51.078;13.740;2022-11-09T16:28:43;14.40;44.20
14604;DHT22;7388;51.078;13.740;2022-11-09T16:31:10;14.50;44.30
14604;DHT22;7388;51.078;13.740;2022-11-09T16:33:37;14.40;44.30
14604;DHT22;7388;51.078;13.740;2022-11-09T16:36:06;14.40;44.20
14604;DHT22;7388;51.078;13.740;2022-11-09T16:38:43;14.40;44.10
14604;DHT22;7388;51.078;13.740;2022-11-09T16:41:13;14.50;44.20
14604;DHT22;7388;51.078;13.740;2022-11-09T16:43:39;14.50;44.20
14604;DHT22;7388;51.078;13.740;2022-11-09T16:46:05;14.50;44.10
14604;DHT22;7388;51.078;13.740;2022-11-09T16:48:32;14.50;44.10
14604;DHT22;7388;51.078;13.740;2022-11-09T16:50:58;14.40;44.10
14604;DHT22;7388;51.078;13.740;2022-11-09T16:53:24;14.40;44.20
14604;DHT22;7388;51.078;13.740;2022-11-09T16:55:50;14.40;44.20
14604;DHT22;7388;51.078;13.740;2022-11-09T16:58:15;14.40;44.20
14604;DHT22;7388;51.078;13.740;2022-11-09T17:00:45;14.40;44.20
14604;DHT22;7388;51.078;13.740;2022-11-09T17:03:11;14.50;44.30
14604;DHT22;7388;51.078;13.740;2022-11-09T17:05:38;14.40;44.10
14604;DHT22;7388;51.078;13.740;2022-11-09T17:08:05;14.50;44.10
14604;DHT22;7388;51.078;13.740;2022-11-09T17:10:31;14.50;44.20
14604;DHT22;7388;51.078;13.740;2022-11-09T17:12:56;14.50;44.20
14604;DHT22;7388;51.078;13.740;2022-11-09T17:15:22;14.50;44.20
14604;DHT22;7388;51.078;13.740;2022-11-09T17:17:48;14.50;44.10
14604;DHT22;7388;51.078;13.740;2022-11-09T17:20:14;14.50;44.20
14604;DHT22;7388;51.078;13.740;2022-11-09T17:22:40;14.50;44.20
14604;DHT22;7388;51.078;13.740;2022-11-09T17:25:06;14.50;44.20
14604;DHT22;7388;51.078;13.740;2022-11-09T17:27:32;14.50;44.50
14604;DHT22;7388;51.078;13.740;2022-11-09T17:29:58;14.50;44.40
14604;DHT22;7388;51.078;13.740;2022-11-09T17:32:24;14.50;44.50
14604;DHT22;7388;51.078;13.740;2022-11-09T17:34:53;14.50;44.50
14604;DHT22;7388;51.078;13.740;2022-11-09T17:37:19;14.50;44.50
14604;DHT22;7388;51.078;13.740;2022-11-09T17:39:44;14.50;44.50
14604;DHT22;7388;51.078;13.740;2022-11-09T17:42:10;14.50;44.60